首页
METAR-TAF:

METAR-TAF

机场 :

比亚里茨, 法国

纬度: 43-28N, 经度: 001-32W, 海拔: 75米

当前天气观测

该预报发布于48分钟前的16:00 UTC
风速13节,风向西,在西转西南西北之间变化
温度 19°C
湿度 73%
气压 1013 hPa
能见度10公里或以上
多云层高于2000英尺
多云层高于2500英尺
多云层高于13000英尺

METAR: LFBZ 051600Z AUTO 28013KT 240V310 9999 BKN020 BKN025 BKN130 19/14 Q1013 NOSIG

时间: 18:48 (16:48 UTC)

预报

该预报发布于5小时和48分钟前的11:00 UTC
预报有效从05日的 12点(UTC)到 06日的 12点(UTC)
风速15节,风向西
能见度10公里或以上
多云层高于2500英尺
短暂存在
从 05日的 12点(UTC)到 05日的 16点(UTC)
风速15节,风向西,有时为30节阵风
能見度: 4000
多云层高于1300英尺
短暂存在
从 05日的 22点(UTC)到 06日的 12点(UTC)
能見度: 4000
小雨

TAF: LFBZ 051100Z 0512/0612 28015KT 9999 BKN025 TEMPO 0512/0516 26015G30KT 4000 RA BKN013 TEMPO 0522/0612 4000 -RA

超过4000个机场的气象观测和天气预报(METAR&TAF报告)。

可查询的气象台以黄色和红色小点在地图上表示。

将鼠标移到小点上方,可查看气象台名称。

然后点击查看天气观测和预报。

如需切换地图:点击带黑十字的绿色按钮放大地图;点击带横线的绿色按钮缩小地图;或者点击绿色箭头查看邻近地区的地图。


METAR-TAF: